Time;durP1;ratioP1;P1;durP2;ratioP2;P2;SDS_P1;SDS_P2;PMS_P1;PMS_P2;Temp;Humidity;BMP_temperature;BMP_pressure;BME280_temperature;BME280_humidity;BME280_pressure;Samples;Min_cycle;Max_cycle;Signal;HPM_P1;HPM_P2
2022/01/26 00:07:07;;;;;;;64.70;27.42;;;2.80;99.90;;;;;;5032188;28;20047;-87
2022/01/26 00:09:33;;;;;;;71.55;28.08;;;2.80;99.90;;;;;;5033551;28;20486;-88
2022/01/26 00:11:59;;;;;;;109.85;29.70;;;2.80;99.90;;;;;;5033393;28;20386;-87
2022/01/26 00:14:25;;;;;;;108.13;27.85;;;2.90;99.90;;;;;;5032572;28;20017;-96
2022/01/26 00:16:50;;;;;;;183.55;31.92;;;2.80;99.90;;;;;;5032967;28;20025;-85
2022/01/26 00:19:25;;;;;;;111.35;29.42;;;2.80;99.90;;;;;;5028739;28;20585;-85
2022/01/26 00:21:52;;;;;;;95.03;28.98;;;2.60;99.90;;;;;;5031556;28;20031;-87
2022/01/26 00:29:25;;;;;;;67.75;28.30;;;2.70;99.90;;;;;;5030873;28;20034;-85
2022/01/26 00:41:04;;;;;;;74.43;25.63;;;2.80;99.90;;;;;;5035173;28;20024;-86
2022/01/26 00:43:08;;;;;;;52.92;24.10;;;2.70;99.90;;;;;;5024589;28;20052;-95
2022/01/26 00:45:36;;;;;;;89.82;26.88;;;2.70;99.90;;;;;;5033753;28;20465;-84
2022/01/26 00:48:05;;;;;;;1278.93;118.00;;;2.60;99.90;;;;;;5035418;28;20021;-94
2022/01/26 00:50:33;;;;;;;97.22;28.05;;;2.60;99.90;;;;;;5036472;28;20442;-95
2022/01/26 00:53:00;;;;;;;98.07;26.65;;;2.60;99.90;;;;;;5036380;28;20110;-84
2022/01/26 00:55:25;;;;;;;1269.95;116.90;;;2.50;99.90;;;;;;5034966;28;20079;-95
2022/01/26 00:57:51;;;;;;;98.75;26.40;;;2.60;99.90;;;;;;5037664;28;20033;-84
2022/01/26 01:00:21;;;;;;;59.25;25.08;;;2.50;99.90;;;;;;5036567;28;20441;-87
2022/01/26 01:02:48;;;;;;;98.60;24.90;;;2.40;99.90;;;;;;5036511;28;20164;-86
2022/01/26 01:05:19;;;;;;;86.60;25.27;;;2.40;99.90;;;;;;5036857;28;20124;-86
2022/01/26 01:07:47;;;;;;;77.88;25.95;;;2.20;99.90;;;;;;5039016;28;20410;-86
2022/01/26 01:10:16;;;;;;;61.08;24.50;;;2.20;99.90;;;;;;5037508;28;20033;-86
2022/01/26 01:12:42;;;;;;;86.10;24.13;;;2.30;99.90;;;;;;5038744;28;20013;-87
2022/01/26 01:15:09;;;;;;;96.88;23.65;;;2.20;99.90;;;;;;5037802;28;20025;-86
2022/01/26 01:17:42;;;;;;;104.50;24.50;;;2.00;99.90;;;;;;5035446;28;20022;-86
2022/01/26 01:30:40;;;;;;;;;;;2.20;99.90;;;;;;5035286;28;20052;-87
2022/01/26 01:33:08;;;;;;;37.92;22.05;;;2.10;99.90;;;;;;5035043;28;19945;-87
2022/01/26 01:35:37;;;;;;;259.17;41.20;;;2.10;99.90;;;;;;5035766;28;20571;-86
2022/01/26 01:38:13;;;;;;;50.47;24.10;;;2.10;99.90;;;;;;5035920;28;20030;-86
2022/01/26 01:40:41;;;;;;;72.18;24.55;;;1.90;99.90;;;;;;5033622;28;20029;-87
2022/01/26 01:43:08;;;;;;;57.95;24.15;;;1.90;99.90;;;;;;5035392;28;20049;-86
2022/01/26 01:45:44;;;;;;;156.98;28.42;;;2.00;99.90;;;;;;5033945;28;20061;-86
2022/01/26 01:48:17;;;;;;;59.55;23.95;;;2.00;99.90;;;;;;5031116;28;20029;-86
2022/01/26 01:50:49;;;;;;;44.53;22.58;;;2.10;99.90;;;;;;5034118;28;20032;-86
2022/01/26 01:53:17;;;;;;;121.40;26.42;;;2.00;99.90;;;;;;5035112;28;20029;-86
2022/01/26 01:55:49;;;;;;;88.00;24.17;;;2.10;99.90;;;;;;5032219;28;20029;-86
2022/01/26 01:58:17;;;;;;;76.65;23.77;;;2.00;99.90;;;;;;5032128;28;20029;-85
2022/01/26 02:00:43;;;;;;;61.95;24.08;;;2.00;99.90;;;;;;5033589;28;20053;-86
2022/01/26 02:03:09;;;;;;;41.30;22.55;;;2.00;99.90;;;;;;5031824;28;20068;-86
2022/01/26 02:05:35;;;;;;;100.85;25.50;;;2.10;99.90;;;;;;5032445;28;20117;-86
2022/01/26 02:08:00;;;;;;;44.90;21.98;;;2.10;99.90;;;;;;5033568;28;20025;-87
2022/01/26 02:10:29;;;;;;;215.32;30.17;;;2.10;99.90;;;;;;5033985;28;20025;-86
2022/01/26 02:12:57;;;;;;;41.60;21.05;;;2.20;99.90;;;;;;5031564;28;20052;-86
2022/01/26 02:15:29;;;;;;;85.05;23.48;;;2.10;99.90;;;;;;5031295;28;20387;-86
2022/01/26 02:20:54;;;;;;;47.10;21.38;;;2.10;99.90;;;;;;5032976;28;20467;-86
2022/01/26 02:53:47;;;;;;;118.07;23.15;;;1.50;99.90;;;;;;5035118;28;20037;-87
2022/01/26 02:56:21;;;;;;;205.23;32.25;;;1.50;99.90;;;;;;5035180;28;20391;-95
2022/01/26 02:59:11;;;;;;;200.75;27.25;;;1.50;99.90;;;;;;5032815;28;20514;-86
2022/01/26 03:04:27;;;;;;;829.70;76.85;;;1.50;99.90;;;;;;5032609;28;20041;-86
2022/01/26 03:09:33;;;;;;;122.65;27.63;;;1.40;99.90;;;;;;5032729;28;20026;-86
2022/01/26 03:12:01;;;;;;;83.95;23.80;;;1.50;99.90;;;;;;5033236;28;20032;-87
2022/01/26 03:19:54;;;;;;;51.10;23.55;;;1.60;99.90;;;;;;5032205;28;20029;-86
2022/01/26 03:30:20;;;;;;;58.78;21.98;;;1.70;99.90;;;;;;5031872;28;19905;-86
2022/01/26 03:33:08;;;;;;;87.80;22.67;;;1.60;99.90;;;;;;5031643;28;20461;-86
2022/01/26 03:35:44;;;;;;;54.70;22.45;;;1.70;99.90;;;;;;5032417;28;20025;-87
2022/01/26 03:38:48;;;;;;;42.22;21.10;;;1.70;99.90;;;;;;5034763;28;20030;-86
2022/01/26 03:41:22;;;;;;;50.25;20.33;;;1.70;99.90;;;;;;5028873;28;20175;-89
2022/01/26 03:43:48;;;;;;;64.32;22.55;;;1.70;99.90;;;;;;5029950;28;20049;-87
2022/01/26 03:46:14;;;;;;;51.08;20.73;;;1.70;99.90;;;;;;5034951;28;20034;-86
2022/01/26 03:48:40;;;;;;;59.58;20.33;;;1.60;99.90;;;;;;5032687;28;20030;-87
2022/01/26 03:51:05;;;;;;;82.53;19.85;;;1.60;99.90;;;;;;5030414;28;20085;-86
2022/01/26 03:53:32;;;;;;;36.55;19.48;;;1.50;99.90;;;;;;5031455;28;20025;-86
2022/01/26 03:55:58;;;;;;;61.70;21.58;;;1.40;99.90;;;;;;5030970;28;20041;-86
2022/01/26 03:58:23;;;;;;;47.83;20.35;;;1.40;99.90;;;;;;5030926;28;20514;-96
2022/01/26 04:00:49;;;;;;;56.95;20.40;;;1.50;99.90;;;;;;5032483;28;20021;-86
2022/01/26 04:03:15;;;;;;;82.85;21.73;;;1.50;99.90;;;;;;5030917;28;20053;-86
2022/01/26 04:05:40;;;;;;;61.05;21.48;;;1.50;99.90;;;;;;5031016;28;20095;-86
2022/01/26 04:08:13;;;;;;;70.90;21.17;;;1.50;99.90;;;;;;5029967;28;20029;-86
2022/01/26 04:13:31;;;;;;;49.33;20.13;;;1.60;99.90;;;;;;5015144;28;20030;-85
2022/01/26 04:15:56;;;;;;;56.38;21.38;;;1.60;99.90;;;;;;5036601;28;20037;-86
2022/01/26 04:18:29;;;;;;;40.08;21.02;;;1.60;99.90;;;;;;5038487;28;20080;-96
2022/01/26 04:20:58;;;;;;;86.45;22.42;;;1.60;99.90;;;;;;5054807;28;20065;-85
2022/01/26 04:25:53;;;;;;;86.55;21.98;;;1.60;99.90;;;;;;5038900;28;20073;-86
2022/01/26 04:28:26;;;;;;;399.88;40.13;;;1.60;99.90;;;;;;5038536;28;20041;-85
2022/01/26 04:30:51;;;;;;;111.50;23.02;;;1.60;99.90;;;;;;5042211;28;20021;-96
2022/01/26 04:33:17;;;;;;;84.25;23.13;;;1.50;99.90;;;;;;5037852;28;20543;-87
2022/01/26 04:35:45;;;;;;;87.68;24.42;;;1.50;99.90;;;;;;5038669;28;20079;-86
2022/01/26 04:38:27;;;;;;;73.47;22.75;;;1.50;99.90;;;;;;5040096;28;20120;-87
2022/01/26 04:41:10;;;;;;;63.05;22.73;;;1.60;99.90;;;;;;5037955;28;20112;-86
2022/01/26 04:43:39;;;;;;;319.52;41.50;;;1.60;99.90;;;;;;5038590;28;20545;-96
2022/01/26 04:46:07;;;;;;;73.63;24.17;;;1.60;99.90;;;;;;5037323;28;20057;-86
2022/01/26 04:48:33;;;;;;;40.05;21.45;;;1.60;99.90;;;;;;5038547;28;20120;-86
2022/01/26 04:50:59;;;;;;;57.60;21.98;;;1.60;99.90;;;;;;5038362;28;20096;-85
2022/01/26 04:53:25;;;;;;;115.97;24.85;;;1.50;99.90;;;;;;5039455;28;20029;-86
2022/01/26 04:55:52;;;;;;;106.57;23.42;;;1.60;99.90;;;;;;5037295;28;20026;-86
2022/01/26 04:58:18;;;;;;;58.60;22.85;;;1.60;99.90;;;;;;5038136;28;20105;-86
2022/01/26 05:00:44;;;;;;;41.60;21.35;;;1.60;99.90;;;;;;5037133;28;20030;-86
2022/01/26 05:03:09;;;;;;;94.68;22.58;;;1.70;99.90;;;;;;5037472;28;20052;-86
2022/01/26 05:05:35;;;;;;;51.88;20.17;;;1.70;99.90;;;;;;5036872;28;20037;-86
2022/01/26 05:08:01;;;;;;;99.65;20.25;;;1.70;99.90;;;;;;5036058;28;20113;-96
2022/01/26 05:10:28;;;;;;;67.35;21.95;;;1.50;99.90;;;;;;5036544;28;20030;-86
2022/01/26 05:12:54;;;;;;;77.65;18.73;;;1.40;99.90;;;;;;5037028;28;20026;-93
2022/01/26 05:15:22;;;;;;;60.75;19.13;;;1.30;99.90;;;;;;5036825;28;20071;-96
2022/01/26 05:17:49;;;;;;;41.03;19.27;;;1.30;99.90;;;;;;5035647;28;20399;-86
2022/01/26 05:20:15;;;;;;;109.80;22.73;;;1.30;99.90;;;;;;5037249;28;20386;-86
2022/01/26 05:22:43;;;;;;;68.20;20.63;;;1.30;99.90;;;;;;5035571;28;20036;-96
2022/01/26 05:25:09;;;;;;;80.18;24.27;;;1.20;99.90;;;;;;5033309;28;20030;-86
2022/01/26 05:27:35;;;;;;;43.42;21.10;;;1.20;99.90;;;;;;5034417;28;20036;-86
2022/01/26 05:30:01;;;;;;;96.07;22.70;;;1.30;99.90;;;;;;5033956;28;20030;-96
2022/01/26 05:32:27;;;;;;;92.75;22.15;;;1.30;99.90;;;;;;5034316;28;20049;-86
2022/01/26 05:34:53;;;;;;;46.70;20.98;;;1.30;99.90;;;;;;5034660;28;20112;-86
2022/01/26 05:37:19;;;;;;;76.95;23.23;;;1.30;99.90;;;;;;5033283;28;20427;-95
2022/01/26 05:39:45;;;;;;;82.30;23.95;;;1.30;99.90;;;;;;5033665;28;20036;-85
2022/01/26 05:42:10;;;;;;;133.23;26.48;;;1.20;99.90;;;;;;5033776;28;20057;-90
2022/01/26 05:44:36;;;;;;;87.45;23.88;;;1.30;99.90;;;;;;5048665;28;20061;-86
2022/01/26 05:47:04;;;;;;;49.42;22.70;;;1.20;99.90;;;;;;5032384;28;20034;-86
2022/01/26 05:49:30;;;;;;;85.75;25.23;;;1.20;99.90;;;;;;5033217;28;20026;-86
2022/01/26 05:51:56;;;;;;;83.05;23.77;;;1.20;99.90;;;;;;5033651;28;20021;-96
2022/01/26 05:54:21;;;;;;;237.43;31.88;;;1.20;99.90;;;;;;5033423;28;20041;-86
2022/01/26 05:56:50;;;;;;;544.95;51.97;;;1.10;99.90;;;;;;5032886;28;20025;-96
2022/01/26 05:59:17;;;;;;;39.08;21.17;;;1.20;99.90;;;;;;5033579;28;20033;-89
2022/01/26 06:01:43;;;;;;;46.90;23.13;;;1.20;99.90;;;;;;5033428;28;20021;-86
2022/01/26 06:04:08;;;;;;;52.08;22.70;;;1.30;99.90;;;;;;5033624;28;20022;-86
2022/01/26 06:06:34;;;;;;;50.83;20.70;;;1.30;99.90;;;;;;5035396;28;20029;-96
2022/01/26 06:09:00;;;;;;;113.93;24.05;;;1.40;99.90;;;;;;5033000;28;20509;-86
2022/01/26 06:11:25;;;;;;;80.63;22.38;;;1.30;99.90;;;;;;5031315;28;20083;-88
2022/01/26 06:13:51;;;;;;;63.70;22.63;;;1.30;99.90;;;;;;5034721;28;20402;-85
2022/01/26 06:16:17;;;;;;;77.68;21.90;;;1.20;99.90;;;;;;5034466;28;20122;-86
2022/01/26 06:18:45;;;;;;;55.28;20.35;;;1.20;99.90;;;;;;5039885;28;20021;-91
2022/01/26 06:21:11;;;;;;;221.93;33.22;;;1.30;99.90;;;;;;5036713;28;20028;-92
2022/01/26 06:23:37;;;;;;;38.13;20.55;;;1.30;99.90;;;;;;5029153;28;20108;-85
2022/01/26 06:26:02;;;;;;;31.50;19.05;;;1.40;99.90;;;;;;5010476;28;20342;-86
2022/01/26 06:28:28;;;;;;;61.38;22.23;;;1.30;99.90;;;;;;5010724;28;20029;-86
2022/01/26 06:31:00;;;;;;;56.63;21.02;;;1.30;99.90;;;;;;5012781;28;20037;-89
2022/01/26 06:33:35;;;;;;;43.70;19.35;;;1.20;99.90;;;;;;5012042;28;20084;-86
2022/01/26 06:36:03;;;;;;;73.78;21.15;;;1.10;99.90;;;;;;5011663;28;20025;-87
2022/01/26 06:38:29;;;;;;;67.97;22.42;;;1.10;99.90;;;;;;5011238;28;20064;-87
2022/01/26 06:40:57;;;;;;;49.55;20.63;;;1.10;99.90;;;;;;5011690;28;20033;-87
2022/01/26 06:43:25;;;;;;;45.72;21.98;;;1.20;99.90;;;;;;5011529;28;20054;-86
2022/01/26 06:45:57;;;;;;;76.60;23.00;;;1.20;99.90;;;;;;5011842;28;20402;-87
2022/01/26 06:51:07;;;;;;;;;;;1.20;99.90;;;;;;5011840;28;20028;-86
2022/01/26 06:53:32;;;;;;;37.58;20.80;;;1.10;99.90;;;;;;5026123;28;20000;-87
2022/01/26 06:55:58;;;;;;;63.10;23.40;;;1.10;99.90;;;;;;5011350;28;20032;-86
2022/01/26 06:58:24;;;;;;;101.47;23.70;;;1.10;99.90;;;;;;5011610;28;20536;-87
2022/01/26 07:00:50;;;;;;;57.50;23.70;;;1.10;99.90;;;;;;5011440;28;20570;-87
2022/01/26 07:03:16;;;;;;;63.60;24.27;;;1.20;99.90;;;;;;5011467;28;20316;-87
2022/01/26 07:05:42;;;;;;;54.55;24.67;;;1.20;99.90;;;;;;5011316;28;20069;-86
2022/01/26 07:08:08;;;;;;;50.08;23.45;;;1.30;99.90;;;;;;5011269;28;20018;-87
2022/01/26 07:10:34;;;;;;;69.57;22.98;;;1.30;99.90;;;;;;5011287;28;20531;-87
2022/01/26 07:13:02;;;;;;;78.13;23.65;;;1.30;99.90;;;;;;5010923;28;20032;-87
2022/01/26 07:21:23;;;;;;;39.63;21.70;;;1.30;99.90;;;;;;5011815;28;20036;-91
2022/01/26 07:23:45;;;;;;;41.63;21.77;;;1.20;99.90;;;;;;5013249;28;20361;-93
2022/01/26 07:26:11;;;;;;;49.10;21.75;;;1.20;99.90;;;;;;5010916;28;20420;-90
2022/01/26 07:28:39;;;;;;;141.23;29.17;;;1.20;99.90;;;;;;5010374;28;20050;-91
2022/01/26 07:31:07;;;;;;;56.90;24.25;;;1.20;99.90;;;;;;5010451;28;20363;-90
2022/01/26 07:33:34;;;;;;;70.28;23.00;;;1.20;99.90;;;;;;5010235;28;20033;-93
2022/01/26 07:36:00;;;;;;;310.40;33.47;;;1.30;99.90;;;;;;5010333;28;20032;-91
2022/01/26 07:38:26;;;;;;;59.92;21.50;;;1.30;99.90;;;;;;5010744;28;20081;-90
2022/01/26 07:40:53;;;;;;;93.32;22.70;;;1.30;99.90;;;;;;5011782;28;20030;-92
2022/01/26 07:43:19;;;;;;;1392.25;161.02;;;1.30;99.90;;;;;;5013312;28;20046;-91
2022/01/26 07:45:46;;;;;;;43.67;21.35;;;1.20;99.90;;;;;;5011106;28;20041;-92
2022/01/26 07:48:11;;;;;;;75.38;21.35;;;1.20;99.90;;;;;;5011783;28;20467;-92
2022/01/26 07:50:37;;;;;;;45.63;20.75;;;1.20;99.90;;;;;;5010778;28;20080;-91
2022/01/26 07:53:03;;;;;;;133.43;22.73;;;1.30;99.90;;;;;;5010076;28;20030;-91
2022/01/26 07:55:30;;;;;;;92.55;22.30;;;1.30;99.90;;;;;;5010722;28;20028;-92
2022/01/26 07:57:57;;;;;;;69.95;21.58;;;1.20;99.90;;;;;;5011449;28;20109;-91
2022/01/26 08:00:23;;;;;;;81.43;21.55;;;1.10;99.90;;;;;;5010620;28;20245;-90
2022/01/26 08:02:50;;;;;;;52.58;20.83;;;1.10;99.90;;;;;;5010829;28;20057;-92
2022/01/26 08:05:16;;;;;;;49.08;20.30;;;1.20;99.90;;;;;;5011972;28;20494;-91
2022/01/26 08:07:43;;;;;;;81.28;21.58;;;1.20;99.90;;;;;;5010230;28;20031;-91
2022/01/26 08:10:10;;;;;;;47.72;20.42;;;1.30;99.90;;;;;;5010311;28;20065;-91
2022/01/26 08:12:37;;;;;;;65.50;19.80;;;1.30;99.90;;;;;;5010268;28;20490;-92
2022/01/26 08:15:04;;;;;;;119.75;22.08;;;1.30;99.90;;;;;;5010016;28;20087;-92
2022/01/26 08:17:29;;;;;;;53.53;19.00;;;1.20;99.90;;;;;;5011386;28;20053;-92
2022/01/26 08:19:56;;;;;;;54.10;19.92;;;1.20;99.90;;;;;;5012229;28;20101;-91
2022/01/26 08:22:25;;;;;;;79.47;20.60;;;1.20;99.90;;;;;;5010877;28;20105;-90
2022/01/26 08:24:51;;;;;;;49.42;19.67;;;1.20;99.90;;;;;;5009762;28;20053;-92
2022/01/26 08:27:19;;;;;;;46.72;19.67;;;1.20;99.90;;;;;;5009752;28;20025;-91
2022/01/26 08:29:49;;;;;;;58.85;19.55;;;1.20;99.90;;;;;;5009724;28;20475;-90
2022/01/26 08:32:15;;;;;;;61.88;21.73;;;1.30;99.90;;;;;;5009598;28;20486;-91
2022/01/26 08:34:41;;;;;;;46.42;21.95;;;1.40;99.90;;;;;;5009566;28;20124;-90
2022/01/26 08:37:09;;;;;;;54.45;21.50;;;1.50;99.90;;;;;;5009335;28;20018;-91
2022/01/26 08:39:36;;;;;;;109.95;26.23;;;1.50;99.90;;;;;;4993096;28;20041;-91
2022/01/26 08:42:05;;;;;;;58.58;24.10;;;1.60;99.90;;;;;;5009531;28;20029;-92
2022/01/26 08:44:31;;;;;;;177.75;29.77;;;1.70;99.90;;;;;;5009454;28;20053;-92
2022/01/26 08:46:57;;;;;;;83.50;27.90;;;1.70;99.90;;;;;;5010981;28;20371;-91
2022/01/26 08:49:25;;;;;;;105.88;28.52;;;1.70;99.90;;;;;;5009777;28;20545;-91
2022/01/26 08:51:51;;;;;;;88.03;28.42;;;1.70;99.90;;;;;;5009582;28;20445;-92
2022/01/26 08:54:20;;;;;;;117.65;28.92;;;1.80;99.90;;;;;;5009449;28;20025;-91
2022/01/26 08:56:47;;;;;;;151.95;34.40;;;1.70;99.90;;;;;;5009297;28;20187;-91
2022/01/26 08:59:13;;;;;;;184.00;33.63;;;1.70;99.90;;;;;;5012713;28;20284;-92
2022/01/26 09:01:38;;;;;;;104.85;30.95;;;1.70;99.90;;;;;;5013169;28;20121;-91
2022/01/26 09:04:06;;;;;;;84.05;31.92;;;1.50;99.90;;;;;;5015215;28;20105;-92
2022/01/26 09:06:33;;;;;;;115.20;26.50;;;1.60;99.90;;;;;;5014702;28;20491;-91
2022/01/26 09:09:06;;;;;;;69.50;27.52;;;1.70;99.90;;;;;;5014308;28;20029;-91
2022/01/26 09:11:31;;;;;;;91.65;33.55;;;1.70;99.90;;;;;;5013039;28;20041;-91
2022/01/26 09:13:59;;;;;;;93.57;28.38;;;1.80;99.90;;;;;;5012838;28;20021;-91
2022/01/26 09:16:25;;;;;;;75.28;29.75;;;1.90;99.90;;;;;;5012668;28;20022;-91
2022/01/26 09:18:58;;;;;;;109.47;31.70;;;1.90;99.90;;;;;;5012976;28;20030;-92
2022/01/26 09:21:25;;;;;;;84.82;28.15;;;2.00;99.90;;;;;;5012774;28;20045;-91
2022/01/26 09:23:51;;;;;;;66.45;27.83;;;2.00;99.90;;;;;;5012229;28;20030;-92
2022/01/26 09:26:18;;;;;;;43.72;23.00;;;2.10;99.90;;;;;;5012829;28;20061;-92
2022/01/26 09:28:44;;;;;;;55.00;22.60;;;2.10;99.90;;;;;;5012801;28;20018;-91
2022/01/26 09:31:10;;;;;;;54.00;20.80;;;2.20;99.90;;;;;;5013913;28;20036;-91
2022/01/26 09:33:36;;;;;;;70.78;22.02;;;2.20;99.90;;;;;;5013844;28;20022;-91
2022/01/26 09:36:03;;;;;;;85.80;25.73;;;2.30;99.90;;;;;;5012431;28;20095;-91
2022/01/26 09:38:29;;;;;;;92.07;20.88;;;2.30;99.90;;;;;;5012124;28;20018;-91
2022/01/26 09:40:55;;;;;;;125.80;31.23;;;2.20;99.90;;;;;;5012247;28;20399;-92
2022/01/26 09:43:20;;;;;;;121.93;23.15;;;2.20;99.90;;;;;;5011959;28;20046;-91
2022/01/26 09:45:47;;;;;;;38.15;19.05;;;2.20;99.90;;;;;;5013404;28;20045;-93
2022/01/26 09:48:13;;;;;;;90.57;21.45;;;2.20;99.90;;;;;;5012380;28;20109;-92
2022/01/26 09:50:43;;;;;;;45.90;20.23;;;2.20;99.90;;;;;;5012210;28;20509;-92
2022/01/26 09:53:10;;;;;;;75.05;22.95;;;2.10;99.90;;;;;;5011785;28;20018;-91
2022/01/26 09:55:41;;;;;;;92.18;21.73;;;2.30;99.90;;;;;;5012211;28;20487;-91
2022/01/26 09:58:07;;;;;;;36.40;20.60;;;2.30;99.90;;;;;;5012031;28;20235;-91
2022/01/26 10:00:33;;;;;;;33.13;18.95;;;2.20;99.90;;;;;;5012220;28;20097;-91
2022/01/26 10:03:00;;;;;;;60.17;20.95;;;2.20;99.90;;;;;;5011961;28;20051;-92
2022/01/26 10:05:41;;;;;;;45.50;21.90;;;2.20;99.90;;;;;;5015799;28;20426;-91
2022/01/26 10:16:02;;;;;;;40.17;20.67;;;2.30;99.90;;;;;;5013189;28;20021;-91
2022/01/26 10:18:31;;;;;;;42.22;22.35;;;2.30;99.90;;;;;;5012226;28;20041;-91
2022/01/26 10:20:58;;;;;;;55.88;25.48;;;2.40;99.90;;;;;;5011583;28;20092;-91
2022/01/26 10:23:26;;;;;;;56.10;20.13;;;2.60;99.90;;;;;;5011141;28;20446;-92
2022/01/26 10:26:03;;;;;;;43.50;17.92;;;2.70;99.90;;;;;;5013286;28;20044;-92
2022/01/26 10:28:53;;;;;;;45.25;19.92;;;2.70;99.90;;;;;;5012831;28;20026;-91
2022/01/26 10:31:27;;;;;;;45.13;20.70;;;2.80;99.90;;;;;;5011606;28;20100;-91
2022/01/26 10:33:57;;;;;;;35.42;21.77;;;2.80;99.90;;;;;;5012977;28;20030;-91
2022/01/26 10:36:25;;;;;;;56.90;20.80;;;2.80;99.90;;;;;;5011498;28;20040;-91
2022/01/26 10:39:06;;;;;;;42.00;19.55;;;2.80;99.90;;;;;;5011306;28;20022;-92
2022/01/26 10:41:33;;;;;;;52.25;20.70;;;2.70;99.90;;;;;;5011399;28;20641;-91
2022/01/26 10:44:01;;;;;;;56.20;17.88;;;2.70;99.90;;;;;;5012464;28;20545;-92
2022/01/26 10:46:31;;;;;;;58.33;18.25;;;2.70;99.90;;;;;;5011352;28;20034;-92
2022/01/26 10:49:42;;;;;;;36.30;18.50;;;2.60;99.90;;;;;;5011210;28;20030;-92
2022/01/26 10:54:54;;;;;;;33.22;16.88;;;2.60;99.90;;;;;;5013087;28;20062;-92
2022/01/26 10:57:20;;;;;;;47.78;19.05;;;2.60;99.90;;;;;;5012612;28;20030;-92
2022/01/26 10:59:50;;;;;;;40.03;21.73;;;2.50;99.90;;;;;;5011147;28;20083;-92
2022/01/26 11:02:22;;;;;;;55.20;20.02;;;2.60;99.90;;;;;;5011119;28;20030;-92
2022/01/26 11:04:48;;;;;;;41.10;20.92;;;2.60;99.90;;;;;;5010908;28;20045;-92
2022/01/26 11:07:16;;;;;;;37.92;18.23;;;2.70;99.90;;;;;;5011081;28;20033;-92
2022/01/26 11:09:45;;;;;;;32.72;19.92;;;2.70;99.90;;;;;;5011052;28;20022;-91
2022/01/26 11:12:13;;;;;;;56.78;19.88;;;2.80;99.90;;;;;;5011575;28;20037;-91
2022/01/26 11:14:43;;;;;;;31.63;17.73;;;2.80;99.90;;;;;;5010980;28;20568;-92
2022/01/26 11:17:11;;;;;;;36.08;17.90;;;2.90;99.90;;;;;;5010681;28;20076;-91
2022/01/26 11:19:47;;;;;;;26.58;16.17;;;2.90;99.90;;;;;;5010840;28;20026;-93
2022/01/26 11:22:14;;;;;;;39.35;16.75;;;3.00;99.90;;;;;;5009631;28;20109;-91
2022/01/26 11:24:48;;;;;;;38.42;18.40;;;2.90;99.90;;;;;;5011765;28;20453;-91
2022/01/26 11:27:18;;;;;;;42.45;17.38;;;3.00;99.90;;;;;;5030983;28;20021;-92
2022/01/26 11:29:48;;;;;;;36.25;17.40;;;2.80;99.90;;;;;;5030640;28;20029;-92
2022/01/26 11:32:26;;;;;;;40.97;18.77;;;2.90;99.90;;;;;;5029915;28;20124;-92
2022/01/26 11:34:53;;;;;;;27.02;16.23;;;3.00;99.90;;;;;;5030091;28;20087;-92
2022/01/26 11:37:45;;;;;;;41.30;17.60;;;3.00;99.90;;;;;;5029878;28;20026;-92
2022/01/26 11:46:06;;;;;;;50.45;28.25;;;3.10;99.90;;;;;;5040619;28;19977;-91
2022/01/26 11:48:32;;;;;;;50.80;18.08;;;3.20;99.90;;;;;;5056233;28;20273;-90
2022/01/26 11:51:03;;;;;;;39.08;16.17;;;3.20;99.90;;;;;;5030840;28;20021;-91
2022/01/26 11:53:30;;;;;;;26.73;17.45;;;3.10;99.90;;;;;;5030665;28;20434;-89
2022/01/26 11:56:13;;;;;;;28.00;15.65;;;3.20;99.90;;;;;;5029312;28;20048;-89
2022/01/26 11:58:42;;;;;;;25.60;16.20;;;3.30;99.90;;;;;;5030679;28;20045;-90
2022/01/26 12:01:18;;;;;;;32.85;17.17;;;3.40;99.90;;;;;;5032684;28;20100;-90
2022/01/26 12:04:00;;;;;;;26.98;16.42;;;3.60;99.90;;;;;;5029769;28;20541;-89
2022/01/26 12:06:30;;;;;;;27.40;18.02;;;3.60;99.90;;;;;;5027711;28;20490;-90
2022/01/26 12:08:58;;;;;;;27.95;17.42;;;3.70;99.90;;;;;;5028672;28;20069;-90
2022/01/26 12:11:28;;;;;;;45.35;26.48;;;3.80;99.90;;;;;;5028750;28;20636;-90
2022/01/26 12:14:05;;;;;;;43.38;20.58;;;3.70;99.90;;;;;;5029024;28;20009;-90
2022/01/26 12:16:40;;;;;;;31.80;19.65;;;3.80;99.90;;;;;;5028916;28;20056;-89
2022/01/26 12:36:02;;;;;;;27.95;17.33;;;4.00;99.90;;;;;;4972694;28;20561;-90
2022/01/26 12:43:56;;;;;;;33.55;19.27;;;4.00;99.90;;;;;;5033714;28;20070;-90
2022/01/26 12:46:30;;;;;;;29.73;17.17;;;4.00;99.90;;;;;;5033987;28;20121;-91
2022/01/26 12:48:59;;;;;;;33.05;18.73;;;4.00;99.90;;;;;;5032791;28;20030;-90
2022/01/26 12:51:27;;;;;;;32.30;18.85;;;4.00;99.90;;;;;;5032856;28;20037;-90
2022/01/26 12:53:55;;;;;;;61.72;31.92;;;4.10;99.90;;;;;;5032365;28;20025;-89
2022/01/26 12:56:24;;;;;;;43.67;26.52;;;4.10;99.90;;;;;;5034242;28;20022;-90
2022/01/26 12:59:02;;;;;;;39.10;24.20;;;4.00;99.90;;;;;;5032921;28;20037;-91
2022/01/26 13:01:30;;;;;;;65.38;34.72;;;3.90;99.90;;;;;;5034138;28;20030;-89
2022/01/26 13:04:01;;;;;;;58.10;31.73;;;3.80;99.90;;;;;;5033674;28;20116;-90
2022/01/26 13:06:29;;;;;;;50.55;28.83;;;3.90;99.90;;;;;;5033622;28;20478;-90
2022/01/26 13:09:00;;;;;;;101.70;57.60;;;4.00;99.90;;;;;;5033197;28;20026;-89
2022/01/26 13:11:33;;;;;;;32.80;20.98;;;3.90;99.90;;;;;;5033599;28;20168;-89
2022/01/26 13:14:29;;;;;;;35.40;24.08;;;3.90;99.90;;;;;;5032307;28;20512;-91
2022/01/26 13:17:19;;;;;;;44.85;31.15;;;4.10;99.90;;;;;;5033296;28;20431;-89
2022/01/26 13:25:54;;;;;;;32.45;20.42;;;4.20;99.90;;;;;;5033747;28;20033;-92
2022/01/26 13:39:28;;;;;;;33.15;20.65;;;4.00;99.90;;;;;;5032724;28;20053;-90
2022/01/26 13:41:29;;;;;;;43.88;24.83;;;3.90;99.90;;;;;;5028749;28;20034;-92
2022/01/26 13:49:21;;;;;;;29.40;19.23;;;4.20;99.90;;;;;;5033571;28;20405;-89
2022/01/26 14:01:45;;;;;;;46.08;26.33;;;4.10;99.90;;;;;;5036013;28;20433;-90
2022/01/26 14:04:17;;;;;;;81.43;34.20;;;4.10;99.90;;;;;;5035941;28;20530;-90
2022/01/26 14:06:47;;;;;;;51.85;25.52;;;4.20;99.90;;;;;;5036709;28;20217;-90
2022/01/26 14:09:13;;;;;;;38.33;22.17;;;4.30;99.90;;;;;;5045372;28;20082;-91
2022/01/26 14:11:40;;;;;;;43.97;23.73;;;4.30;99.90;;;;;;5046717;28;20044;-91
2022/01/26 14:14:06;;;;;;;40.25;24.90;;;4.30;99.90;;;;;;5047532;28;20057;-90
2022/01/26 14:16:38;;;;;;;40.38;23.60;;;4.30;99.90;;;;;;5044190;28;20518;-91
2022/01/26 14:19:13;;;;;;;35.53;21.55;;;4.30;99.90;;;;;;5045158;28;20037;-91
2022/01/26 14:24:52;;;;;;;;;;;4.10;99.90;;;;;;5046699;28;20046;-90
2022/01/26 14:27:20;;;;;;;42.05;27.02;;;4.10;99.90;;;;;;5044505;28;19920;-90
2022/01/26 14:32:34;;;;;;;76.88;47.33;;;3.90;99.90;;;;;;5045528;28;20018;-90
2022/01/26 14:51:07;;;;;;;;;;;3.80;99.90;;;;;;5033431;28;20416;-90
2022/01/26 15:21:48;;;;;;;;;;;3.70;99.90;;;;;;5032547;28;19951;-90
2022/01/26 15:33:47;;;;;;;;;;;3.60;99.90;;;;;;5032086;28;19905;-90
2022/01/26 15:42:36;;;;;;;;;;;3.60;99.90;;;;;;5032154;28;19912;-90
2022/01/26 15:45:03;;;;;;;;;;;3.60;99.90;;;;;;5025525;28;19943;-90
2022/01/26 15:50:44;;;;;;;;;;;3.50;99.90;;;;;;5033056;28;19914;-90
2022/01/26 15:53:05;;;;;;;;;;;3.40;99.90;;;;;;5028911;28;19905;-90
2022/01/26 15:59:07;;;;;;;;;;;3.50;99.90;;;;;;4989545;28;19953;-90
2022/01/26 16:04:43;;;;;;;;;;;3.40;99.90;;;;;;5023352;28;19911;-90
2022/01/26 16:07:13;;;;;;;;;;;3.40;99.90;;;;;;5030478;28;19915;-91
2022/01/26 17:12:20;;;;;;;;;;;3.20;99.90;;;;;;5030483;28;20006;-90
2022/01/26 18:17:56;;;;;;;;;;;2.70;99.90;;;;;;5044564;28;19970;-87
2022/01/26 18:26:08;;;;;;;;;;;2.70;99.90;;;;;;5052419;28;20327;-86
2022/01/26 18:50:03;;;;;;;;;;;2.60;99.90;;;;;;4964970;29;19925;-89
2022/01/26 18:52:28;;;;;;;;;;;2.60;99.90;;;;;;4964859;29;19902;-86
2022/01/26 18:54:54;;;;;;;;;;;2.60;99.90;;;;;;4965201;28;20041;-94
2022/01/26 18:57:19;;;;;;;;;;;2.50;99.90;;;;;;4964629;29;19907;-86
2022/01/26 18:59:46;;;;;;;;;;;2.50;99.90;;;;;;4980504;28;19903;-86
2022/01/26 19:02:12;;;;;;;;;;;2.50;99.90;;;;;;4978971;28;19902;-86
2022/01/26 19:04:44;;;;;;;;;;;2.50;99.90;;;;;;4964909;28;19906;-87
2022/01/26 19:07:09;;;;;;;;;;;2.50;99.90;;;;;;4962550;28;19907;-86
2022/01/26 19:09:40;;;;;;;;;;;2.40;99.90;;;;;;4963715;28;19902;-87
2022/01/26 19:12:09;;;;;;;;;;;2.30;99.90;;;;;;4978815;28;20048;-89
2022/01/26 19:14:38;;;;;;;;;;;2.30;99.90;;;;;;4964401;28;19976;-86
2022/01/26 19:17:10;;;;;;;;;;;2.30;99.90;;;;;;4964282;29;19902;-86
2022/01/26 19:19:46;;;;;;;;;;;2.20;99.90;;;;;;4964559;29;19902;-89
2022/01/26 19:43:38;;;;;;;;;;;1.90;99.90;;;;;;4963738;28;20194;-86
2022/01/26 19:51:13;;;;;;;;;;;1.90;99.90;;;;;;4964071;29;19949;-92
2022/01/26 19:53:39;;;;;;;;;;;2.00;99.90;;;;;;4964232;29;19906;-92
2022/01/26 19:56:05;;;;;;;;;;;2.00;99.90;;;;;;4964615;29;19910;-93